createdAt,value
2022-09-20T00:01:07.606Z,5.82
2022-09-20T00:03:39.710Z,7.10
2022-09-20T00:06:09.321Z,9.30
2022-09-20T00:08:36.288Z,9.85
2022-09-20T00:11:12.255Z,9.13
2022-09-20T00:13:39.743Z,8.43
2022-09-20T00:16:10.944Z,5.60
2022-09-20T00:18:38.480Z,8.68
2022-09-20T00:21:05.352Z,10.65
2022-09-20T00:23:32.780Z,9.18
2022-09-20T00:26:04.047Z,9.77
2022-09-20T00:28:32.487Z,4.95
2022-09-20T00:30:58.947Z,5.50
2022-09-20T00:33:46.265Z,14.82
2022-09-20T00:36:13.326Z,5.95
2022-09-20T00:38:39.816Z,10.65
2022-09-20T00:41:06.475Z,9.60
2022-09-20T00:43:44.165Z,5.75
2022-09-20T00:46:33.614Z,9.38
2022-09-20T00:49:07.794Z,8.25
2022-09-20T00:51:38.886Z,6.60
2022-09-20T00:54:08.741Z,11.65
2022-09-20T00:56:40.876Z,10.15
2022-09-20T00:59:16.863Z,16.00
2022-09-20T01:01:46.736Z,5.35
2022-09-20T01:04:16.584Z,8.13
2022-09-20T01:06:45.982Z,12.55
2022-09-20T01:09:12.481Z,11.00
2022-09-20T01:11:40.513Z,20.98
2022-09-20T01:14:07.500Z,11.77
2022-09-20T01:16:34.946Z,9.38
2022-09-20T01:19:15.729Z,7.45
2022-09-20T01:21:42.333Z,9.77
2022-09-20T01:24:20.641Z,8.75
2022-09-20T01:26:56.500Z,10.40
2022-09-20T01:29:22.871Z,9.00
2022-09-20T01:31:54.108Z,14.15
2022-09-20T01:34:37.416Z,8.15
2022-09-20T01:37:06.840Z,10.52
2022-09-20T01:39:33.201Z,4.43
2022-09-20T01:42:05.264Z,21.58
2022-09-20T01:44:59.802Z,10.73
2022-09-20T01:47:38.555Z,13.40
2022-09-20T01:50:15.319Z,7.72
2022-09-20T01:52:56.937Z,11.30
2022-09-20T01:56:04.891Z,15.40
2022-09-20T01:58:40.278Z,6.32
2022-09-20T02:01:48.416Z,7.57
2022-09-20T02:04:37.783Z,7.18
2022-09-20T02:07:13.440Z,6.50
2022-09-20T02:09:58.916Z,7.82
2022-09-20T02:12:40.553Z,15.43
2022-09-20T02:15:28.557Z,10.13
2022-09-20T02:18:01.607Z,8.07
2022-09-20T02:20:31.052Z,9.25
2022-09-20T02:23:13.455Z,11.35
2022-09-20T02:26:01.046Z,6.05
2022-09-20T02:28:33.315Z,12.70
2022-09-20T02:31:07.225Z,9.25
2022-09-20T02:33:52.090Z,14.85
2022-09-20T02:36:40.669Z,8.57
2022-09-20T02:39:16.742Z,9.02
2022-09-20T02:44:24.572Z,12.18
2022-09-20T02:47:09.086Z,8.38
2022-09-20T02:50:00.399Z,18.77
2022-09-20T02:52:48.183Z,5.75
2022-09-20T02:55:25.263Z,7.00
2022-09-20T02:58:00.897Z,7.40
2022-09-20T03:00:51.384Z,10.43
2022-09-20T03:03:44.303Z,7.25
2022-09-20T03:06:43.640Z,7.88
2022-09-20T03:09:31.668Z,9.00
2022-09-20T03:12:17.986Z,9.02
2022-09-20T03:15:13.527Z,11.52
2022-09-20T03:17:50.634Z,6.25
2022-09-20T03:20:25.996Z,13.10
2022-09-20T03:22:55.472Z,8.90
2022-09-20T03:25:47.070Z,12.02
2022-09-20T03:28:32.072Z,7.85
2022-09-20T03:31:17.846Z,9.77
2022-09-20T03:34:02.873Z,6.90
2022-09-20T03:36:56.749Z,8.40
2022-09-20T03:39:38.425Z,8.10
2022-09-20T03:42:16.621Z,8.15
2022-09-20T03:44:49.111Z,6.45
2022-09-20T03:48:01.589Z,11.60
2022-09-20T03:50:36.794Z,7.15
2022-09-20T03:53:15.468Z,8.73
2022-09-20T03:56:00.742Z,13.10
2022-09-20T03:58:33.116Z,11.40
2022-09-20T04:01:38.923Z,16.08
2022-09-20T04:04:22.865Z,7.65
2022-09-20T04:07:08.045Z,14.93
2022-09-20T04:10:03.904Z,9.77
2022-09-20T04:12:39.223Z,11.18
2022-09-20T04:15:23.955Z,12.10
2022-09-20T04:18:19.340Z,9.38
2022-09-20T04:20:50.904Z,11.85
2022-09-20T04:23:44.509Z,14.20
2022-09-20T04:26:11.119Z,15.15
2022-09-20T04:28:47.250Z,8.82
2022-09-20T04:34:51.821Z,11.35
2022-09-20T04:37:39.615Z,14.52
2022-09-20T04:40:47.911Z,14.95
2022-09-20T04:43:20.265Z,15.15
2022-09-20T04:46:16.271Z,19.85
2022-09-20T04:48:45.735Z,16.40
2022-09-20T04:51:33.627Z,18.40
2022-09-20T04:54:42.151Z,22.75
2022-09-20T04:57:36.727Z,22.98
2022-09-20T05:00:10.918Z,24.80
2022-09-20T05:02:37.933Z,19.48
2022-09-20T05:05:32.357Z,25.50
2022-09-20T05:08:11.215Z,16.52
2022-09-20T05:11:04.236Z,16.65
2022-09-20T05:13:49.836Z,21.30
2022-09-20T05:16:29.762Z,13.23
2022-09-20T05:19:13.328Z,16.05
2022-09-20T05:21:52.658Z,17.17
2022-09-20T05:24:31.275Z,16.77
2022-09-20T05:27:33.973Z,21.85
2022-09-20T05:30:06.979Z,20.48
2022-09-20T05:32:56.681Z,15.32
2022-09-20T05:36:16.724Z,14.45
2022-09-20T05:38:43.172Z,15.73
2022-09-20T05:41:23.697Z,15.73
2022-09-20T05:44:02.085Z,10.88
2022-09-20T05:46:37.595Z,14.77
2022-09-20T05:49:20.196Z,14.63
2022-09-20T05:52:20.852Z,16.48
2022-09-20T05:55:25.114Z,13.98
2022-09-20T05:58:23.888Z,17.33
2022-09-20T06:01:02.172Z,11.77
2022-09-20T06:04:01.156Z,13.85
2022-09-20T06:06:56.235Z,11.40
2022-09-20T06:09:53.706Z,11.65
2022-09-20T06:12:52.762Z,13.35
2022-09-20T06:15:29.084Z,18.92
2022-09-20T06:18:23.721Z,14.40
2022-09-20T06:21:11.742Z,13.73
2022-09-20T06:23:38.232Z,16.38
2022-09-20T06:26:20.528Z,18.15
2022-09-20T06:28:54.193Z,17.27
2022-09-20T06:31:24.345Z,13.98
2022-09-20T06:33:50.995Z,13.50
2022-09-20T06:36:45.603Z,14.43
2022-09-20T06:39:38.073Z,11.07
2022-09-20T06:42:04.753Z,12.52
2022-09-20T06:44:31.304Z,12.70
2022-09-20T06:46:58.000Z,12.95
2022-09-20T06:49:28.130Z,16.67
2022-09-20T06:51:55.802Z,11.63
2022-09-20T06:54:23.156Z,11.90
2022-09-20T06:56:51.226Z,18.70
2022-09-20T06:59:17.853Z,21.45
2022-09-20T07:01:44.432Z,13.05
2022-09-20T07:04:11.020Z,15.90
2022-09-20T07:06:37.687Z,13.98
2022-09-20T07:09:05.672Z,10.38
2022-09-20T07:11:34.153Z,9.32
2022-09-20T07:14:01.336Z,9.40
2022-09-20T07:16:27.982Z,9.88
2022-09-20T07:18:54.543Z,9.05
2022-09-20T07:21:21.482Z,6.43
2022-09-20T07:23:51.369Z,7.97
2022-09-20T07:26:19.866Z,10.18
2022-09-20T07:28:47.006Z,11.15
2022-09-20T07:31:13.717Z,7.05
2022-09-20T07:33:40.272Z,13.25
2022-09-20T07:36:07.060Z,7.85
2022-09-20T07:38:33.587Z,10.93
2022-09-20T07:41:02.302Z,7.88
2022-09-20T07:43:30.876Z,11.43
2022-09-20T07:45:59.327Z,10.50
2022-09-20T07:48:31.601Z,10.20
2022-09-20T07:51:08.007Z,9.73
2022-09-20T07:53:35.937Z,7.25
2022-09-20T07:56:04.115Z,7.47
2022-09-20T07:58:34.002Z,8.93
2022-09-20T08:01:09.128Z,10.45
2022-09-20T08:03:36.390Z,9.40
2022-09-20T08:06:06.053Z,8.90
2022-09-20T08:08:37.307Z,7.03
2022-09-20T08:11:05.402Z,8.07
2022-09-20T08:16:22.955Z,8.50
2022-09-20T08:18:51.277Z,7.07
2022-09-20T08:21:18.938Z,9.85
2022-09-20T08:23:50.053Z,9.07
2022-09-20T08:26:19.008Z,6.40
2022-09-20T08:28:46.821Z,9.13
2022-09-20T08:31:16.055Z,8.90
2022-09-20T08:33:43.236Z,9.93
2022-09-20T08:36:15.744Z,9.27
2022-09-20T08:41:37.370Z,8.63
2022-09-20T08:44:15.364Z,6.93
2022-09-20T08:46:47.523Z,6.90
2022-09-20T08:49:26.330Z,6.00
2022-09-20T08:51:54.720Z,9.07
2022-09-20T08:54:24.181Z,8.35
2022-09-20T08:56:51.049Z,5.15
2022-09-20T08:59:20.061Z,9.13
2022-09-20T09:01:48.709Z,6.65
2022-09-20T09:04:23.469Z,7.05
2022-09-20T09:06:52.562Z,9.82
2022-09-20T09:09:25.542Z,9.65
2022-09-20T09:11:53.820Z,7.18
2022-09-20T09:14:43.851Z,17.95
2022-09-20T09:17:12.230Z,8.10
2022-09-20T09:19:44.900Z,6.43
2022-09-20T09:22:17.276Z,7.65
2022-09-20T09:24:43.808Z,6.20
2022-09-20T09:27:19.167Z,8.52
2022-09-20T09:29:54.264Z,3.33
2022-09-20T09:32:24.786Z,5.57
2022-09-20T09:34:51.272Z,4.82
2022-09-20T09:37:31.025Z,5.53
2022-09-20T09:40:06.359Z,4.15
2022-09-20T09:42:33.197Z,3.92
2022-09-20T09:45:20.632Z,7.30
2022-09-20T09:47:47.474Z,6.10
2022-09-20T09:50:23.416Z,4.28
2022-09-20T09:56:17.275Z,4.78
2022-09-20T09:59:31.516Z,27.35
2022-09-20T10:02:16.081Z,5.65
2022-09-20T10:05:11.970Z,6.63
2022-09-20T10:07:45.848Z,3.50
2022-09-20T10:10:39.413Z,4.35
2022-09-20T10:13:19.935Z,14.10
2022-09-20T10:15:52.257Z,6.05
2022-09-20T10:18:51.042Z,4.13
2022-09-20T10:22:02.016Z,4.63
2022-09-20T10:24:44.461Z,8.88
2022-09-20T10:27:41.901Z,5.40
2022-09-20T10:30:16.924Z,5.28
2022-09-20T10:32:59.908Z,8.93
2022-09-20T10:35:37.034Z,5.30
2022-09-20T10:38:13.515Z,3.78
2022-09-20T10:41:03.804Z,3.03
2022-09-20T10:43:55.289Z,6.03
2022-09-20T10:46:43.009Z,6.45
2022-09-20T10:49:34.590Z,2.42
2022-09-20T10:52:01.039Z,8.35
2022-09-20T10:54:49.863Z,2.80
2022-09-20T10:57:58.660Z,2.55
2022-09-20T11:00:32.391Z,4.68
2022-09-20T11:03:10.986Z,6.65
2022-09-20T11:06:24.473Z,2.13
2022-09-20T11:08:55.708Z,3.00
2022-09-20T11:11:40.322Z,1.33
2022-09-20T11:14:19.407Z,3.28
2022-09-20T11:17:00.346Z,5.32
2022-09-20T11:19:31.347Z,4.50
2022-09-20T11:22:13.262Z,4.40
2022-09-20T11:24:46.285Z,2.42
2022-09-20T11:27:19.985Z,4.28
2022-09-20T11:30:15.208Z,5.20
2022-09-20T11:33:04.757Z,7.90
2022-09-20T11:35:48.054Z,1.70
2022-09-20T11:38:21.888Z,3.92
2022-09-20T11:41:01.478Z,1.42
2022-09-20T11:43:30.236Z,7.70
2022-09-20T11:46:04.505Z,1.17
2022-09-20T11:48:51.577Z,3.00
2022-09-20T11:51:40.215Z,3.58
2022-09-20T11:54:13.073Z,1.25
2022-09-20T11:56:42.472Z,1.90
2022-09-20T11:59:28.171Z,0.82
2022-09-20T12:01:59.342Z,1.88
2022-09-20T12:04:33.921Z,3.05
2022-09-20T12:07:32.159Z,1.50
2022-09-20T12:10:04.891Z,1.52
2022-09-20T12:12:31.875Z,5.07
2022-09-20T12:15:01.385Z,5.57
2022-09-20T12:17:46.224Z,2.42
2022-09-20T12:20:44.888Z,3.22
2022-09-20T12:23:42.643Z,2.30
2022-09-20T12:26:32.199Z,4.05
2022-09-20T12:29:20.371Z,4.80
2022-09-20T12:31:52.697Z,3.85
2022-09-20T12:34:19.153Z,8.70
2022-09-20T12:37:10.207Z,5.78
2022-09-20T12:39:38.698Z,5.72
2022-09-20T12:42:11.586Z,2.97
2022-09-20T12:44:47.053Z,4.50
2022-09-20T12:47:13.476Z,5.85
2022-09-20T12:50:04.790Z,2.40
2022-09-20T12:52:58.652Z,3.33
2022-09-20T12:55:43.597Z,2.85
2022-09-20T12:58:16.050Z,3.58
2022-09-20T13:00:50.772Z,6.03
2022-09-20T13:03:22.757Z,3.92
2022-09-20T13:06:12.564Z,8.40
2022-09-20T13:08:39.922Z,2.50
2022-09-20T13:11:06.828Z,2.83
2022-09-20T13:13:47.486Z,6.90
2022-09-20T13:16:22.523Z,4.22
2022-09-20T13:19:01.518Z,3.60
2022-09-20T13:21:28.422Z,5.53
2022-09-20T13:23:55.324Z,2.45
2022-09-20T13:26:27.459Z,4.60
2022-09-20T13:28:55.671Z,4.50
2022-09-20T13:31:24.095Z,6.90
2022-09-20T13:33:50.849Z,2.58
2022-09-20T13:36:27.124Z,5.78
2022-09-20T13:38:56.737Z,4.28
2022-09-20T13:41:24.400Z,5.45
2022-09-20T13:43:51.207Z,2.08
2022-09-20T13:46:22.239Z,5.45
2022-09-20T13:48:53.883Z,3.83
2022-09-20T13:51:25.419Z,2.40
2022-09-20T13:53:52.425Z,4.32
2022-09-20T13:56:18.830Z,4.20
2022-09-20T13:58:45.620Z,5.65
2022-09-20T14:01:27.194Z,5.57
2022-09-20T14:03:54.763Z,2.13
2022-09-20T14:06:29.629Z,5.45
2022-09-20T14:08:58.963Z,3.70
2022-09-20T14:11:33.657Z,4.22
2022-09-20T14:14:02.768Z,3.65
2022-09-20T14:16:37.956Z,2.45
2022-09-20T14:19:05.697Z,1.55
2022-09-20T14:21:33.480Z,4.00
2022-09-20T14:24:05.597Z,3.47
2022-09-20T14:26:36.197Z,3.45
2022-09-20T14:29:47.650Z,2.08
2022-09-20T14:32:16.929Z,2.97
2022-09-20T14:34:46.490Z,8.38
2022-09-20T14:37:23.960Z,5.45
2022-09-20T14:39:54.903Z,3.58
2022-09-20T14:42:35.736Z,5.50
2022-09-20T14:45:05.139Z,4.03
2022-09-20T14:47:52.489Z,2.03
2022-09-20T14:50:34.503Z,3.08
2022-09-20T14:53:03.607Z,1.60
2022-09-20T14:55:37.146Z,3.42
2022-09-20T14:58:11.891Z,4.30
2022-09-20T15:01:01.503Z,1.83
2022-09-20T15:03:34.178Z,5.03
2022-09-20T15:06:00.824Z,1.85
2022-09-20T15:08:27.784Z,1.35
2022-09-20T15:10:54.740Z,4.05
2022-09-20T15:13:21.658Z,4.82
2022-09-20T15:15:53.602Z,2.42
2022-09-20T15:18:25.220Z,2.30
2022-09-20T15:20:52.939Z,0.90
2022-09-20T15:23:20.134Z,4.20
2022-09-20T15:25:50.487Z,3.97
2022-09-20T15:28:17.744Z,3.92
2022-09-20T15:30:49.212Z,1.48
2022-09-20T15:33:16.437Z,2.03
2022-09-20T15:35:44.161Z,3.05
2022-09-20T15:38:11.852Z,0.73
2022-09-20T15:40:40.598Z,3.95
2022-09-20T15:43:09.429Z,2.55
2022-09-20T15:45:36.239Z,1.50
2022-09-20T15:48:03.034Z,2.63
2022-09-20T15:50:29.559Z,3.55
2022-09-20T15:52:59.994Z,3.20
2022-09-20T15:55:26.841Z,1.38
2022-09-20T15:57:53.384Z,4.22
2022-09-20T16:00:20.058Z,2.58
2022-09-20T16:02:49.956Z,2.30
2022-09-20T16:05:16.439Z,4.57
2022-09-20T16:07:42.922Z,5.32
2022-09-20T16:10:09.571Z,2.72
2022-09-20T16:12:36.060Z,1.77
2022-09-20T16:15:02.602Z,2.70
2022-09-20T16:17:47.660Z,1.85
2022-09-20T16:20:14.180Z,1.60
2022-09-20T16:22:40.689Z,2.03
2022-09-20T16:25:08.601Z,1.33
2022-09-20T16:27:35.140Z,4.90
2022-09-20T16:30:02.492Z,4.18
2022-09-20T16:32:29.029Z,1.83
2022-09-20T16:34:55.500Z,3.08
2022-09-20T16:37:23.631Z,5.10
2022-09-20T16:39:50.121Z,1.75
2022-09-20T16:42:16.927Z,2.08
2022-09-20T16:44:43.395Z,7.05
2022-09-20T16:47:22.114Z,3.97
2022-09-20T16:49:50.187Z,3.65
2022-09-20T16:52:16.696Z,4.35
2022-09-20T16:54:43.151Z,18.88
2022-09-20T16:57:09.681Z,5.75
2022-09-20T16:59:36.142Z,5.55
2022-09-20T17:02:02.717Z,1.77
2022-09-20T17:04:30.018Z,7.97
2022-09-20T17:06:56.740Z,3.95
2022-09-20T17:09:23.502Z,9.05
2022-09-20T17:11:51.208Z,5.50
2022-09-20T17:14:20.258Z,5.47
2022-09-20T17:16:48.003Z,4.30
2022-09-20T17:19:19.576Z,4.90
2022-09-20T17:21:49.800Z,2.20
2022-09-20T17:24:23.343Z,3.80
2022-09-20T17:26:51.023Z,10.73
2022-09-20T17:29:19.145Z,6.03
2022-09-20T17:31:54.103Z,4.60
2022-09-20T17:34:22.538Z,7.00
2022-09-20T17:36:50.366Z,6.03
2022-09-20T17:39:17.529Z,5.28
2022-09-20T17:41:46.952Z,4.53
2022-09-20T17:44:14.034Z,2.75
2022-09-20T17:46:45.536Z,4.93
2022-09-20T17:49:14.712Z,2.42
2022-09-20T17:51:43.846Z,3.30
2022-09-20T17:54:14.510Z,4.93
2022-09-20T17:56:47.048Z,6.00
2022-09-20T17:59:17.890Z,9.02
2022-09-20T18:01:47.191Z,12.05
2022-09-20T18:04:13.971Z,6.88
2022-09-20T18:06:44.424Z,4.20
2022-09-20T18:09:24.678Z,4.45
2022-09-20T18:11:53.005Z,5.55
2022-09-20T18:14:25.670Z,5.82
2022-09-20T18:16:53.415Z,6.68
2022-09-20T18:19:21.394Z,3.97
2022-09-20T18:21:48.257Z,3.95
2022-09-20T18:24:14.982Z,5.95
2022-09-20T18:26:41.946Z,13.02
2022-09-20T18:29:14.141Z,8.55
2022-09-20T18:31:55.553Z,3.17
2022-09-20T18:34:24.327Z,6.85
2022-09-20T18:36:55.707Z,5.18
2022-09-20T18:39:23.110Z,10.00
2022-09-20T18:41:50.586Z,3.10
2022-09-20T18:44:18.497Z,9.38
2022-09-20T18:46:46.453Z,2.38
2022-09-20T18:49:15.029Z,5.72
2022-09-20T18:51:42.449Z,5.50
2022-09-20T18:54:10.526Z,3.95
2022-09-20T18:56:44.659Z,7.00
2022-09-20T18:59:20.480Z,5.80
2022-09-20T19:02:05.580Z,4.88
2022-09-20T19:05:00.204Z,5.13
2022-09-20T19:07:45.349Z,3.70
2022-09-20T19:10:20.489Z,13.00
2022-09-20T19:13:25.285Z,4.90
2022-09-20T19:16:17.074Z,3.83
2022-09-20T19:19:18.024Z,10.02
2022-09-20T19:22:18.484Z,5.30
2022-09-20T19:25:12.697Z,9.95
2022-09-20T19:27:39.576Z,3.40
2022-09-20T19:30:07.154Z,5.97
2022-09-20T19:32:34.504Z,6.60
2022-09-20T19:35:01.662Z,9.25
2022-09-20T19:37:56.868Z,6.85
2022-09-20T19:40:46.377Z,6.05
2022-09-20T19:43:19.510Z,2.55
2022-09-20T19:46:14.690Z,5.45
2022-09-20T19:48:54.312Z,7.85
2022-09-20T19:51:22.312Z,8.68
2022-09-20T19:53:49.772Z,5.90
2022-09-20T19:56:28.036Z,3.70
2022-09-20T19:58:56.199Z,7.97
2022-09-20T20:01:24.523Z,3.55
2022-09-20T20:03:55.060Z,4.28
2022-09-20T20:06:27.743Z,4.47
2022-09-20T20:09:03.234Z,3.05
2022-09-20T20:12:08.323Z,7.93
2022-09-20T20:14:44.575Z,6.78
2022-09-20T20:17:24.815Z,5.75
2022-09-20T20:20:06.044Z,2.90
2022-09-20T20:22:47.726Z,6.90
2022-09-20T20:25:46.223Z,5.70
2022-09-20T20:28:13.688Z,6.45
2022-09-20T20:30:40.155Z,5.13
2022-09-20T20:33:07.264Z,4.80
2022-09-20T20:35:34.092Z,7.15
2022-09-20T20:38:00.627Z,2.85
2022-09-20T20:40:28.124Z,6.25
2022-09-20T20:43:02.519Z,7.43
2022-09-20T20:45:32.221Z,6.82
2022-09-20T20:47:59.225Z,7.03
2022-09-20T20:50:27.051Z,9.25
2022-09-20T20:52:57.263Z,9.45
2022-09-20T20:55:24.802Z,8.25
2022-09-20T20:57:58.080Z,8.70
2022-09-20T21:00:27.950Z,11.77
2022-09-20T21:03:01.509Z,4.63
2022-09-20T21:05:29.060Z,9.93
2022-09-20T21:07:56.286Z,9.18
2022-09-20T21:10:23.691Z,7.68
2022-09-20T21:12:53.703Z,8.90
2022-09-20T21:15:21.314Z,6.50
2022-09-20T21:17:52.398Z,9.18
2022-09-20T21:20:19.324Z,12.35
2022-09-20T21:22:45.942Z,9.52
2022-09-20T21:25:12.700Z,9.77
2022-09-20T21:27:39.447Z,5.28
2022-09-20T21:30:06.541Z,8.20
2022-09-20T21:32:32.971Z,6.63
2022-09-20T21:34:59.407Z,8.60
2022-09-20T21:37:25.847Z,10.93
2022-09-20T21:39:54.365Z,10.30
2022-09-20T21:42:20.844Z,6.45
2022-09-20T21:44:47.404Z,9.85
2022-09-20T21:47:20.000Z,7.00
2022-09-20T21:49:47.545Z,6.57
2022-09-20T21:52:14.437Z,8.07
2022-09-20T21:54:40.931Z,8.60
2022-09-20T21:57:07.460Z,7.97
2022-09-20T21:59:33.956Z,6.28
2022-09-20T22:02:00.380Z,13.13
2022-09-20T22:04:29.104Z,9.15
2022-09-20T22:06:55.704Z,13.27
2022-09-20T22:09:24.019Z,9.40
2022-09-20T22:11:50.608Z,10.02
2022-09-20T22:14:19.375Z,9.88
2022-09-20T22:16:47.862Z,11.77
2022-09-20T22:19:16.969Z,9.73
2022-09-20T22:21:48.101Z,8.48
2022-09-20T22:24:15.973Z,7.75
2022-09-20T22:26:45.002Z,7.78
2022-09-20T22:29:11.726Z,10.23
2022-09-20T22:31:44.872Z,8.27
2022-09-20T22:34:15.467Z,9.25
2022-09-20T22:36:42.153Z,7.30
2022-09-20T22:39:10.111Z,6.00
2022-09-20T22:41:38.025Z,6.70
2022-09-20T22:44:05.738Z,9.25
2022-09-20T22:46:33.612Z,8.73
2022-09-20T22:49:00.384Z,8.20
2022-09-20T22:51:30.723Z,8.32
2022-09-20T22:53:57.187Z,7.43
2022-09-20T22:56:29.291Z,7.40
2022-09-20T22:59:00.914Z,9.05
2022-09-20T23:01:30.141Z,6.93
2022-09-20T23:04:00.860Z,12.70
2022-09-20T23:06:32.234Z,11.55
2022-09-20T23:09:04.497Z,6.45
2022-09-20T23:11:31.375Z,8.02
2022-09-20T23:14:00.064Z,6.38
2022-09-20T23:16:28.939Z,11.57
2022-09-20T23:18:56.915Z,6.75
2022-09-20T23:21:23.876Z,11.45
2022-09-20T23:23:55.557Z,11.27
2022-09-20T23:26:22.329Z,10.25
2022-09-20T23:28:57.631Z,10.68
2022-09-20T23:31:24.955Z,8.13
2022-09-20T23:33:59.696Z,11.38
2022-09-20T23:36:28.962Z,9.88
2022-09-20T23:38:59.740Z,9.30
2022-09-20T23:41:27.698Z,6.90
2022-09-20T23:43:54.707Z,7.85
2022-09-20T23:46:25.421Z,10.02
2022-09-20T23:48:52.224Z,7.80
2022-09-20T23:51:21.653Z,5.95
2022-09-20T23:53:48.583Z,9.48
2022-09-20T23:56:15.371Z,6.88
2022-09-20T23:58:43.900Z,8.70
